createdAt,value
2022-12-13T00:01:45.642Z,98660.88
2022-12-13T00:04:13.997Z,98659.88
2022-12-13T00:06:41.028Z,98663.09
2022-12-13T00:09:07.932Z,98666.81
2022-12-13T00:11:35.043Z,98664.28
2022-12-13T00:14:02.219Z,98659.88
2022-12-13T00:16:29.166Z,98655.31
2022-12-13T00:19:00.208Z,98657.88
2022-12-13T00:21:32.251Z,98652.72
2022-12-13T00:24:00.413Z,98640.19
2022-12-13T00:26:30.432Z,98646.88
2022-12-13T00:29:00.745Z,98650.06
2022-12-13T00:31:56.673Z,98649.94
2022-12-13T00:34:14.880Z,98640.19
2022-12-13T00:36:41.671Z,98641.31
2022-12-13T00:39:08.485Z,98643.94
2022-12-13T00:41:36.161Z,98642.72
2022-12-13T00:44:04.517Z,98651.94
2022-12-13T00:46:31.638Z,98652.13
2022-12-13T00:49:00.302Z,98647.50
2022-12-13T00:51:29.306Z,98649.13
2022-12-13T00:53:56.551Z,98649.34
2022-12-13T00:56:25.840Z,98645.41
2022-12-13T00:58:53.739Z,98646.47
2022-12-13T01:01:24.788Z,98648.03
2022-12-13T01:03:53.558Z,98651.28
2022-12-13T01:06:23.611Z,98637.72
2022-12-13T01:08:50.442Z,98646.19
2022-12-13T01:11:18.399Z,98635.09
2022-12-13T01:13:45.197Z,98633.94
2022-12-13T01:16:12.960Z,98643.97
2022-12-13T01:18:40.659Z,98638.53
2022-12-13T01:21:13.393Z,98641.75
2022-12-13T01:23:40.745Z,98640.00
2022-12-13T01:26:09.896Z,98637.94
2022-12-13T01:28:36.688Z,98634.72
2022-12-13T01:31:05.845Z,98634.56
2022-12-13T01:33:33.222Z,98638.56
2022-12-13T01:36:05.785Z,98625.94
2022-12-13T01:38:37.897Z,98628.72
2022-12-13T01:41:16.758Z,98613.56
2022-12-13T01:43:54.999Z,98628.44
2022-12-13T01:46:21.960Z,98631.03
2022-12-13T01:49:19.627Z,98623.50
2022-12-13T01:51:51.679Z,98620.28
2022-12-13T01:54:22.830Z,98623.13
2022-12-13T01:56:52.690Z,98619.72
2022-12-13T01:59:28.231Z,98629.84
2022-12-13T02:02:00.764Z,98625.63
2022-12-13T02:04:44.197Z,98612.03
2022-12-13T02:07:22.704Z,98611.47
2022-12-13T02:09:56.259Z,98617.88
2022-12-13T02:12:25.451Z,98621.19
2022-12-13T02:15:11.860Z,98614.59
2022-12-13T02:18:10.453Z,98614.84
2022-12-13T02:21:02.921Z,98606.47
2022-12-13T02:24:09.058Z,98608.78
2022-12-13T02:26:48.399Z,98610.84
2022-12-13T02:29:39.017Z,98623.81
2022-12-13T02:32:15.922Z,98616.66
2022-12-13T02:35:22.451Z,98618.53
2022-12-13T02:38:00.017Z,98610.75
2022-12-13T02:40:30.719Z,98617.59
2022-12-13T02:43:21.489Z,98611.53
2022-12-13T02:45:58.316Z,98610.22
2022-12-13T02:48:29.370Z,98614.59
2022-12-13T02:50:57.043Z,98599.66
2022-12-13T02:53:24.621Z,98606.09
2022-12-13T02:55:51.617Z,98600.25
2022-12-13T02:58:23.145Z,98596.25
2022-12-13T03:01:28.928Z,98612.22
2022-12-13T03:04:36.262Z,98603.09
2022-12-13T03:07:24.424Z,98608.03
2022-12-13T03:10:06.397Z,98601.44
2022-12-13T03:12:56.287Z,98601.63
2022-12-13T03:15:47.955Z,98603.25
2022-12-13T03:18:17.763Z,98604.09
2022-12-13T03:20:49.869Z,98601.56
2022-12-13T03:23:18.197Z,98602.09
2022-12-13T03:25:46.367Z,98601.63
2022-12-13T03:28:13.646Z,98597.09
2022-12-13T03:30:40.440Z,98599.84
2022-12-13T03:33:07.258Z,98605.16
2022-12-13T03:35:45.426Z,98599.97
2022-12-13T03:38:22.017Z,98603.22
2022-12-13T03:40:54.840Z,98601.88
2022-12-13T03:43:22.930Z,98599.97
2022-12-13T03:45:53.612Z,98595.22
2022-12-13T03:48:22.761Z,98587.91
2022-12-13T03:50:53.743Z,98587.44
2022-12-13T03:53:22.644Z,98591.16
2022-12-13T03:55:58.532Z,98587.78
2022-12-13T03:58:35.816Z,98587.78
2022-12-13T04:01:09.103Z,98597.63
2022-12-13T04:03:36.941Z,98585.34
2022-12-13T04:06:04.164Z,98591.16
2022-12-13T04:08:31.043Z,98582.88
2022-12-13T04:10:57.902Z,98586.34
2022-12-13T04:13:33.722Z,98578.91
2022-12-13T04:16:01.868Z,98590.88
2022-12-13T04:18:28.864Z,98583.97
2022-12-13T04:20:55.668Z,98583.28
2022-12-13T04:23:22.523Z,98577.28
2022-12-13T04:25:49.329Z,98575.53
2022-12-13T04:28:22.402Z,98586.94
2022-12-13T04:30:53.101Z,98577.41
2022-12-13T04:33:22.280Z,98579.41
2022-12-13T04:35:49.628Z,98581.06
2022-12-13T04:38:16.463Z,98580.97
2022-12-13T04:40:43.417Z,98580.34
2022-12-13T04:43:10.463Z,98572.63
2022-12-13T04:45:37.309Z,98576.19
2022-12-13T04:48:04.639Z,98583.22
2022-12-13T04:50:31.421Z,98584.25
2022-12-13T04:52:58.256Z,98583.78
2022-12-13T04:55:25.018Z,98588.38
2022-12-13T04:57:51.809Z,98588.22
2022-12-13T05:00:18.760Z,98586.56
2022-12-13T05:02:45.955Z,98582.56
2022-12-13T05:05:13.202Z,98584.75
2022-12-13T05:07:42.104Z,98585.00
2022-12-13T05:10:10.447Z,98588.72
2022-12-13T05:12:37.337Z,98578.19
2022-12-13T05:15:04.747Z,98587.44
2022-12-13T05:17:31.943Z,98590.47
2022-12-13T05:19:58.734Z,98599.69
2022-12-13T05:22:25.519Z,98592.09
2022-12-13T05:24:52.458Z,98591.03
2022-12-13T05:27:24.859Z,98591.22
2022-12-13T05:30:04.019Z,98586.72
2022-12-13T05:32:43.507Z,98589.47
2022-12-13T05:35:22.310Z,98589.09
2022-12-13T05:37:55.301Z,98591.34
2022-12-13T05:40:27.376Z,98593.84
2022-12-13T05:43:01.466Z,98583.97
2022-12-13T05:45:30.128Z,98590.47
2022-12-13T05:47:57.094Z,98590.00
2022-12-13T05:50:24.604Z,98587.00
2022-12-13T05:52:51.637Z,98578.44
2022-12-13T05:55:18.648Z,98586.44
2022-12-13T05:57:50.543Z,98591.53
2022-12-13T06:00:28.857Z,98588.84
2022-12-13T06:03:00.563Z,98585.19
2022-12-13T06:05:28.961Z,98587.09
2022-12-13T06:07:57.440Z,98588.88
2022-12-13T06:10:35.006Z,98586.94
2022-12-13T06:13:21.010Z,98587.94
2022-12-13T06:15:48.244Z,98577.28
2022-12-13T06:18:15.621Z,98580.44
2022-12-13T06:20:42.407Z,98582.13
2022-12-13T06:23:09.420Z,98581.31
2022-12-13T06:25:39.357Z,98580.91
2022-12-13T06:28:06.137Z,98583.78
2022-12-13T06:30:33.227Z,98584.75
2022-12-13T06:33:00.228Z,98580.53
2022-12-13T06:35:29.892Z,98588.81
2022-12-13T06:38:01.171Z,98587.78
2022-12-13T06:40:29.053Z,98593.13
2022-12-13T06:42:56.102Z,98593.25
2022-12-13T06:45:23.820Z,98593.91
2022-12-13T06:47:50.866Z,98588.44
2022-12-13T06:50:17.716Z,98591.91
2022-12-13T06:52:46.933Z,98587.09
2022-12-13T06:55:14.113Z,98582.19
2022-12-13T06:57:42.007Z,98590.94
2022-12-13T07:00:10.555Z,98575.09
2022-12-13T07:02:38.656Z,98581.50
2022-12-13T07:05:06.097Z,98578.44
2022-12-13T07:07:32.845Z,98581.72
2022-12-13T07:09:59.780Z,98585.84
2022-12-13T07:12:26.677Z,98579.28
2022-12-13T07:14:53.790Z,98593.34
2022-12-13T07:17:33.512Z,98589.16
2022-12-13T07:20:08.689Z,98589.38
2022-12-13T07:22:40.102Z,98595.63
2022-12-13T07:25:28.665Z,98600.81
2022-12-13T07:28:05.454Z,98597.63
2022-12-13T07:30:41.387Z,98600.97
2022-12-13T07:33:09.411Z,98599.50
2022-12-13T07:35:37.224Z,98599.47
2022-12-13T07:38:05.557Z,98607.31
2022-12-13T07:40:34.890Z,98613.22
2022-12-13T07:43:02.043Z,98611.28
2022-12-13T07:45:29.356Z,98610.97
2022-12-13T07:47:56.290Z,98611.13
2022-12-13T07:50:25.178Z,98617.50
2022-12-13T07:52:53.658Z,98613.22
2022-12-13T07:55:23.193Z,98613.44
2022-12-13T07:58:08.520Z,98610.44
2022-12-13T08:00:35.871Z,98605.41
2022-12-13T08:03:02.923Z,98600.75
2022-12-13T08:05:29.841Z,98590.88
2022-12-13T08:08:07.702Z,98594.59
2022-12-13T08:10:34.841Z,98601.63
2022-12-13T08:13:05.151Z,98600.97
2022-12-13T08:15:32.144Z,98598.31
2022-12-13T08:18:01.180Z,98611.84
2022-12-13T08:20:28.384Z,98606.59
2022-12-13T08:23:02.128Z,98611.03
2022-12-13T08:25:30.752Z,98604.41
2022-12-13T08:28:01.952Z,98608.09
2022-12-13T08:30:29.808Z,98609.59
2022-12-13T08:32:56.510Z,98613.16
2022-12-13T08:35:23.241Z,98620.53
2022-12-13T08:37:50.233Z,98617.59
2022-12-13T08:40:17.167Z,98623.91
2022-12-13T08:42:44.103Z,98617.59
2022-12-13T08:45:11.674Z,98618.19
2022-12-13T08:47:41.711Z,98629.66
2022-12-13T08:50:09.207Z,98614.34
2022-12-13T08:52:40.122Z,98625.03
2022-12-13T08:55:12.781Z,98619.72
2022-12-13T08:57:41.144Z,98617.81
2022-12-13T09:00:12.498Z,98613.94
2022-12-13T09:02:39.477Z,98620.25
2022-12-13T09:05:08.493Z,98622.81
2022-12-13T09:07:36.530Z,98629.06
2022-12-13T09:10:25.333Z,98616.72
2022-12-13T09:12:52.063Z,98622.84
2022-12-13T09:15:28.801Z,98630.03
2022-12-13T09:18:04.881Z,98619.53
2022-12-13T09:20:40.787Z,98628.22
2022-12-13T09:23:13.798Z,98625.81
2022-12-13T09:26:05.327Z,98627.59
2022-12-13T09:28:34.771Z,98623.41
2022-12-13T09:31:01.665Z,98631.91
2022-12-13T09:33:31.097Z,98635.13
2022-12-13T09:35:58.311Z,98618.69
2022-12-13T09:38:31.345Z,98626.34
2022-12-13T09:41:40.732Z,98627.66
2022-12-13T09:44:31.013Z,98634.13
2022-12-13T09:47:13.630Z,98618.53
2022-12-13T09:49:43.437Z,98621.69
2022-12-13T09:52:22.532Z,98614.91
2022-12-13T09:54:53.058Z,98601.56
2022-12-13T09:57:32.837Z,98614.81
2022-12-13T10:00:06.330Z,98608.22
2022-12-13T10:02:33.994Z,98601.72
2022-12-13T10:05:34.236Z,98600.66
2022-12-13T10:08:16.702Z,98594.22
2022-12-13T10:10:44.259Z,98593.56
2022-12-13T10:13:17.313Z,98593.91
2022-12-13T10:15:48.287Z,98593.91
2022-12-13T10:18:20.446Z,98597.34
2022-12-13T10:20:49.786Z,98600.38
2022-12-13T10:23:38.553Z,98601.16
2022-12-13T10:26:09.790Z,98598.28
2022-12-13T10:28:51.654Z,98596.22
2022-12-13T10:31:20.296Z,98596.91
2022-12-13T10:33:58.291Z,98599.09
2022-12-13T10:36:36.082Z,98596.53
2022-12-13T10:39:03.565Z,98592.44
2022-12-13T10:41:38.600Z,98588.78
2022-12-13T10:44:23.085Z,98590.50
2022-12-13T10:47:17.061Z,98589.50
2022-12-13T10:49:59.029Z,98579.50
2022-12-13T10:52:43.480Z,98579.16
2022-12-13T10:55:32.428Z,98574.25
2022-12-13T10:58:07.560Z,98569.66
2022-12-13T11:00:45.854Z,98564.16
2022-12-13T11:03:29.711Z,98566.16
2022-12-13T11:06:19.797Z,98557.44
2022-12-13T11:08:46.672Z,98542.50
2022-12-13T11:11:16.825Z,98556.44
2022-12-13T11:13:51.842Z,98552.41
2022-12-13T11:16:18.647Z,98555.38
2022-12-13T11:18:54.948Z,98549.19
2022-12-13T11:21:27.206Z,98544.78
2022-12-13T11:23:56.206Z,98539.94
2022-12-13T11:26:29.678Z,98545.94
2022-12-13T11:29:30.994Z,98533.69
2022-12-13T11:32:36.220Z,98535.19
2022-12-13T11:35:15.153Z,98530.91
2022-12-13T11:38:32.904Z,98529.81
2022-12-13T11:41:07.859Z,98526.81
2022-12-13T11:43:44.330Z,98522.63
2022-12-13T11:46:17.409Z,98520.03
2022-12-13T11:48:48.724Z,98517.03
2022-12-13T11:51:20.990Z,98507.59
2022-12-13T11:54:02.790Z,98502.41
2022-12-13T11:56:42.697Z,98497.66
2022-12-13T11:59:43.076Z,98495.66
2022-12-13T12:02:21.807Z,98491.63
2022-12-13T12:04:58.341Z,98490.50
2022-12-13T12:07:36.469Z,98481.41
2022-12-13T12:10:58.102Z,98484.94
2022-12-13T12:14:14.468Z,98482.91
2022-12-13T12:16:42.770Z,98491.94
2022-12-13T12:19:20.874Z,98474.78
2022-12-13T12:22:46.759Z,98472.69
2022-12-13T12:25:35.676Z,98473.16
2022-12-13T12:28:18.461Z,98476.19
2022-12-13T12:30:51.441Z,98470.03
2022-12-13T12:33:44.462Z,98475.78
2022-12-13T12:36:33.161Z,98470.50
2022-12-13T12:39:26.250Z,98469.06
2022-12-13T12:42:19.439Z,98466.06
2022-12-13T12:45:27.038Z,98451.16
2022-12-13T12:48:56.923Z,98454.50
2022-12-13T12:51:28.973Z,98450.00
2022-12-13T12:54:34.854Z,98466.22
2022-12-13T12:57:32.051Z,98460.94
2022-12-13T13:00:17.692Z,98458.94
2022-12-13T13:03:15.801Z,98463.78
2022-12-13T13:06:08.552Z,98450.66
2022-12-13T13:08:55.500Z,98448.63
2022-12-13T13:11:25.987Z,98452.66
2022-12-13T13:14:27.067Z,98453.34
2022-12-13T13:16:55.929Z,98455.06
2022-12-13T13:19:41.324Z,98457.22
2022-12-13T13:22:31.053Z,98450.13
2022-12-13T13:25:02.056Z,98455.88
2022-12-13T13:27:30.469Z,98459.06
2022-12-13T13:30:17.056Z,98453.03
2022-12-13T13:32:44.344Z,98452.88
2022-12-13T13:35:53.369Z,98462.59
2022-12-13T13:38:29.203Z,98459.16
2022-12-13T13:40:55.976Z,98452.16
2022-12-13T13:43:32.529Z,98446.25
2022-12-13T13:46:11.039Z,98459.03
2022-12-13T13:48:56.340Z,98468.03
2022-12-13T13:52:23.906Z,98461.34
2022-12-13T13:54:55.910Z,98451.75
2022-12-13T13:58:10.155Z,98469.19
2022-12-13T14:01:08.931Z,98464.94
2022-12-13T14:04:04.256Z,98462.31
2022-12-13T14:07:26.559Z,98454.75
2022-12-13T14:10:03.118Z,98459.06
2022-12-13T14:13:10.593Z,98447.28
2022-12-13T14:16:25.531Z,98445.75
2022-12-13T14:19:27.990Z,98446.66
2022-12-13T14:22:35.553Z,98448.03
2022-12-13T14:25:46.427Z,98452.47
2022-12-13T14:28:44.784Z,98455.53
2022-12-13T14:31:38.138Z,98461.13
2022-12-13T14:34:07.749Z,98455.78
2022-12-13T14:36:36.665Z,98452.00
2022-12-13T14:39:07.164Z,98442.66
2022-12-13T14:41:56.404Z,98440.16
2022-12-13T14:44:31.418Z,98433.44
2022-12-13T14:47:03.923Z,98433.88
2022-12-13T14:49:33.409Z,98430.84
2022-12-13T14:52:06.507Z,98423.81
2022-12-13T14:54:58.000Z,98422.44
2022-12-13T14:57:30.379Z,98430.34
2022-12-13T14:59:59.685Z,98432.28
2022-12-13T15:02:30.048Z,98435.16
2022-12-13T15:05:03.373Z,98437.25
2022-12-13T15:07:38.138Z,98429.19
2022-12-13T15:10:48.429Z,98437.09
2022-12-13T15:13:33.259Z,98433.50
2022-12-13T15:16:10.916Z,98431.75
2022-12-13T15:18:38.747Z,98422.41
2022-12-13T15:21:19.455Z,98409.44
2022-12-13T15:23:49.029Z,98419.75
2022-12-13T15:26:28.379Z,98411.59
2022-12-13T15:29:09.424Z,98413.78
2022-12-13T15:31:37.638Z,98413.25
2022-12-13T15:34:34.226Z,98414.97
2022-12-13T15:37:07.392Z,98406.94
2022-12-13T15:39:41.206Z,98417.81
2022-12-13T15:42:32.084Z,98421.91
2022-12-13T15:45:01.434Z,98416.28
2022-12-13T15:47:29.356Z,98433.03
2022-12-13T15:50:05.809Z,98431.44
2022-12-13T15:52:41.446Z,98428.31
2022-12-13T15:55:11.001Z,98435.47
2022-12-13T15:57:55.324Z,98423.34
2022-12-13T16:00:34.569Z,98438.56
2022-12-13T16:03:28.033Z,98432.94
2022-12-13T16:05:56.758Z,98420.94
2022-12-13T16:08:35.887Z,98420.06
2022-12-13T16:11:03.428Z,98418.09
2022-12-13T16:13:38.077Z,98419.91
2022-12-13T16:16:28.189Z,98425.34
2022-12-13T16:18:59.910Z,98409.78
2022-12-13T16:21:28.299Z,98404.91
2022-12-13T16:23:55.441Z,98407.25
2022-12-13T16:26:29.378Z,98404.22
2022-12-13T16:28:58.866Z,98403.00
2022-12-13T16:31:35.841Z,98404.63
2022-12-13T16:34:04.311Z,98388.03
2022-12-13T16:36:31.679Z,98389.19
2022-12-13T16:38:58.625Z,98382.84
2022-12-13T16:41:25.542Z,98381.78
2022-12-13T16:43:58.381Z,98378.31
2022-12-13T16:47:14.280Z,98378.19
2022-12-13T16:49:27.776Z,98394.47
2022-12-13T16:51:55.311Z,98388.72
2022-12-13T16:54:23.716Z,98387.31
2022-12-13T16:56:50.953Z,98383.19
2022-12-13T16:59:20.184Z,98382.75
2022-12-13T17:01:47.369Z,98395.84
2022-12-13T17:04:20.503Z,98388.22
2022-12-13T17:06:48.971Z,98389.25
2022-12-13T17:09:16.136Z,98385.84
2022-12-13T17:11:45.859Z,98387.66
2022-12-13T17:14:13.151Z,98378.69
2022-12-13T17:16:40.100Z,98375.03
2022-12-13T17:19:07.169Z,98369.31
2022-12-13T17:21:35.035Z,98366.25
2022-12-13T17:24:03.323Z,98371.03
2022-12-13T17:26:59.090Z,98369.88
2022-12-13T17:29:26.464Z,98369.81
2022-12-13T17:31:53.727Z,98369.19
2022-12-13T17:34:20.864Z,98369.47
2022-12-13T17:36:47.629Z,98360.44
2022-12-13T17:39:14.606Z,98361.50
2022-12-13T17:41:42.076Z,98364.00
2022-12-13T17:44:09.221Z,98360.50
2022-12-13T17:46:36.659Z,98355.91
2022-12-13T17:49:03.639Z,98341.03
2022-12-13T17:51:31.395Z,98354.09
2022-12-13T17:53:58.179Z,98339.75
2022-12-13T17:56:25.838Z,98351.97
2022-12-13T17:58:52.780Z,98345.94
2022-12-13T18:01:24.279Z,98356.78
2022-12-13T18:03:56.127Z,98348.38
2022-12-13T18:06:24.485Z,98350.38
2022-12-13T18:08:51.636Z,98353.78
2022-12-13T18:11:35.649Z,98369.50
2022-12-13T18:14:03.261Z,98354.94
2022-12-13T18:16:36.486Z,98350.38
2022-12-13T18:19:10.791Z,98366.75
2022-12-13T18:21:38.002Z,98355.38
2022-12-13T18:24:06.561Z,98363.31
2022-12-13T18:26:33.740Z,98363.41
2022-12-13T18:29:00.707Z,98362.59
2022-12-13T18:31:28.305Z,98354.69
2022-12-13T18:33:55.544Z,98349.28
2022-12-13T18:36:24.526Z,98360.59
2022-12-13T18:38:51.755Z,98370.44
2022-12-13T18:41:23.814Z,98360.16
2022-12-13T18:44:04.802Z,98361.75
2022-12-13T18:46:33.600Z,98358.19
2022-12-13T18:49:00.429Z,98353.06
2022-12-13T18:51:28.040Z,98351.53
2022-12-13T18:53:55.158Z,98355.94
2022-12-13T18:56:22.302Z,98343.34
2022-12-13T18:58:49.696Z,98341.34
2022-12-13T19:01:18.360Z,98346.28
2022-12-13T19:03:47.051Z,98340.28
2022-12-13T19:06:20.304Z,98340.47
2022-12-13T19:08:49.196Z,98332.53
2022-12-13T19:11:16.414Z,98335.47
2022-12-13T19:13:43.498Z,98334.28
2022-12-13T19:16:14.971Z,98325.75
2022-12-13T19:18:42.571Z,98319.84
2022-12-13T19:21:13.857Z,98330.56
2022-12-13T19:23:41.002Z,98317.63
2022-12-13T19:26:09.782Z,98314.41
2022-12-13T19:28:38.380Z,98309.06
2022-12-13T19:31:15.695Z,98314.56
2022-12-13T19:33:43.070Z,98309.31
2022-12-13T19:36:10.993Z,98307.66
2022-12-13T19:38:38.642Z,98311.69
2022-12-13T19:41:14.654Z,98311.16
2022-12-13T19:43:41.898Z,98303.41
2022-12-13T19:46:09.382Z,98313.50
2022-12-13T19:48:37.985Z,98312.47
2022-12-13T19:51:07.254Z,98307.75
2022-12-13T19:53:35.355Z,98308.72
2022-12-13T19:56:12.104Z,98302.03
2022-12-13T19:58:42.386Z,98302.91
2022-12-13T20:01:09.503Z,98296.00
2022-12-13T20:03:41.749Z,98304.59
2022-12-13T20:06:10.761Z,98306.34
2022-12-13T20:08:37.890Z,98305.44
2022-12-13T20:11:07.082Z,98302.84
2022-12-13T20:13:34.578Z,98312.88
2022-12-13T20:16:01.664Z,98286.53
2022-12-13T20:18:28.501Z,98305.78
2022-12-13T20:21:14.249Z,98313.81
2022-12-13T20:23:48.636Z,98307.28
2022-12-13T20:26:27.377Z,98308.94
2022-12-13T20:28:54.950Z,98313.16
2022-12-13T20:31:28.970Z,98310.47
2022-12-13T20:33:56.948Z,98299.97
2022-12-13T20:36:26.671Z,98301.72
2022-12-13T20:38:56.310Z,98299.44
2022-12-13T20:41:25.758Z,98298.22
2022-12-13T20:43:57.402Z,98306.09
2022-12-13T20:46:25.612Z,98302.78
2022-12-13T20:48:53.416Z,98305.16
2022-12-13T20:51:22.378Z,98300.59
2022-12-13T20:53:50.348Z,98293.31
2022-12-13T20:56:19.485Z,98289.16
2022-12-13T20:58:46.879Z,98284.88
2022-12-13T21:01:18.840Z,98286.16
2022-12-13T21:03:49.477Z,98282.59
2022-12-13T21:06:16.549Z,98284.25
2022-12-13T21:08:52.511Z,98288.44
2022-12-13T21:11:26.908Z,98278.88
2022-12-13T21:14:07.547Z,98264.72
2022-12-13T21:16:41.821Z,98263.50
2022-12-13T21:19:14.673Z,98257.19
2022-12-13T21:21:41.961Z,98253.88
2022-12-13T21:24:09.260Z,98256.47
2022-12-13T21:26:36.642Z,98246.09
2022-12-13T21:29:06.803Z,98242.94
2022-12-13T21:31:34.729Z,98245.69
2022-12-13T21:34:08.463Z,98244.34
2022-12-13T21:36:42.972Z,98233.09
2022-12-13T21:39:15.561Z,98238.66
2022-12-13T21:41:43.411Z,98237.44
2022-12-13T21:44:11.251Z,98234.66
2022-12-13T21:49:28.321Z,98233.59
2022-12-13T21:51:55.720Z,98243.84
2022-12-13T21:54:23.041Z,98232.78
2022-12-13T21:57:08.809Z,98240.91
2022-12-13T21:59:35.738Z,98234.34
2022-12-13T22:02:12.278Z,98221.75
2022-12-13T22:04:41.051Z,98215.94
2022-12-13T22:07:10.704Z,98214.69
2022-12-13T22:09:38.194Z,98198.16
2022-12-13T22:12:10.635Z,98201.50
2022-12-13T22:14:37.783Z,98198.94
2022-12-13T22:17:04.629Z,98195.59
2022-12-13T22:19:31.718Z,98192.56
2022-12-13T22:21:58.511Z,98197.16
2022-12-13T22:24:25.458Z,98186.16
2022-12-13T22:26:52.491Z,98198.75
2022-12-13T22:29:19.261Z,98196.03
2022-12-13T22:31:48.782Z,98191.22
2022-12-13T22:34:16.545Z,98189.78
2022-12-13T22:36:43.420Z,98180.66
2022-12-13T22:39:18.069Z,98173.75
2022-12-13T22:41:46.432Z,98178.47
2022-12-13T22:44:13.938Z,98173.47
2022-12-13T22:46:41.453Z,98174.31
2022-12-13T22:49:09.077Z,98169.97
2022-12-13T22:51:36.579Z,98171.16
2022-12-13T22:54:03.724Z,98164.22
2022-12-13T22:56:32.941Z,98158.22
2022-12-13T22:59:02.147Z,98162.69
2022-12-13T23:01:34.141Z,98162.31
2022-12-13T23:04:01.074Z,98166.31
2022-12-13T23:06:30.281Z,98164.38
2022-12-13T23:09:02.138Z,98165.34
2022-12-13T23:11:48.319Z,98156.97
2022-12-13T23:14:18.083Z,98147.09
2022-12-13T23:16:45.356Z,98147.44
2022-12-13T23:19:40.816Z,98142.09
2022-12-13T23:22:02.026Z,98134.22
2022-12-13T23:24:29.102Z,98138.06
2022-12-13T23:26:55.950Z,98132.34
2022-12-13T23:29:22.835Z,98127.66
2022-12-13T23:31:49.580Z,98131.13
2022-12-13T23:34:16.734Z,98122.88
2022-12-13T23:36:43.568Z,98117.00
2022-12-13T23:39:11.294Z,98119.91
2022-12-13T23:41:38.085Z,98114.78
2022-12-13T23:44:05.098Z,98108.06
2022-12-13T23:46:34.441Z,98103.66
2022-12-13T23:49:02.465Z,98098.25
2022-12-13T23:51:29.545Z,98099.88
2022-12-13T23:53:56.689Z,98092.75
2022-12-13T23:56:23.956Z,98077.47
2022-12-13T23:58:51.868Z,98077.59
